createdAt,value
2022-12-09T00:01:31.348Z,2.95
2022-12-09T00:04:00.568Z,3.35
2022-12-09T00:06:31.887Z,2.65
2022-12-09T00:09:01.252Z,3.20
2022-12-09T00:11:30.259Z,4.03
2022-12-09T00:14:01.487Z,4.20
2022-12-09T00:16:30.404Z,4.45
2022-12-09T00:19:00.073Z,5.13
2022-12-09T00:21:32.345Z,4.03
2022-12-09T00:24:04.076Z,5.47
2022-12-09T00:26:34.626Z,3.63
2022-12-09T00:29:05.195Z,4.07
2022-12-09T00:31:37.288Z,4.93
2022-12-09T00:34:10.207Z,5.35
2022-12-09T00:36:40.601Z,4.47
2022-12-09T00:39:09.478Z,5.32
2022-12-09T00:41:38.462Z,3.67
2022-12-09T00:44:08.748Z,3.67
2022-12-09T00:46:37.740Z,4.28
2022-12-09T00:49:08.040Z,3.27
2022-12-09T00:51:36.954Z,4.75
2022-12-09T00:54:06.095Z,3.50
2022-12-09T00:56:34.949Z,3.33
2022-12-09T00:59:03.990Z,4.18
2022-12-09T01:01:34.561Z,5.13
2022-12-09T01:04:03.718Z,4.20
2022-12-09T01:06:32.706Z,3.25
2022-12-09T01:09:01.575Z,3.58
2022-12-09T01:11:31.926Z,3.47
2022-12-09T01:14:03.068Z,6.50
2022-12-09T01:16:35.852Z,3.78
2022-12-09T01:19:08.384Z,3.80
2022-12-09T01:21:37.896Z,5.50
2022-12-09T01:24:11.480Z,5.55
2022-12-09T01:26:40.944Z,3.40
2022-12-09T01:29:09.841Z,4.18
2022-12-09T01:31:40.232Z,3.60
2022-12-09T01:34:09.592Z,3.85
2022-12-09T01:36:39.011Z,3.55
2022-12-09T01:39:08.226Z,4.70
2022-12-09T01:41:37.198Z,4.20
2022-12-09T01:44:16.993Z,3.25
2022-12-09T01:46:48.361Z,3.10
2022-12-09T01:49:23.450Z,2.65
2022-12-09T01:52:03.960Z,5.23
2022-12-09T01:54:34.021Z,3.25
2022-12-09T01:57:05.419Z,3.67
2022-12-09T01:59:34.241Z,3.28
2022-12-09T02:02:07.535Z,2.88
2022-12-09T02:04:41.299Z,3.93
2022-12-09T02:07:12.942Z,2.60
2022-12-09T02:09:44.533Z,3.80
2022-12-09T02:12:16.710Z,4.30
2022-12-09T02:14:55.224Z,4.75
2022-12-09T02:17:36.178Z,4.30
2022-12-09T02:20:17.454Z,3.50
2022-12-09T02:22:50.610Z,3.10
2022-12-09T02:25:31.376Z,3.15
2022-12-09T02:28:42.581Z,4.55
2022-12-09T02:31:26.834Z,5.03
2022-12-09T02:34:19.182Z,3.85
2022-12-09T02:37:06.216Z,4.25
2022-12-09T02:39:49.533Z,3.05
2022-12-09T02:42:23.650Z,3.63
2022-12-09T02:44:53.896Z,3.07
2022-12-09T02:47:29.861Z,2.90
2022-12-09T02:50:07.395Z,3.67
2022-12-09T02:52:39.499Z,3.58
2022-12-09T02:55:12.275Z,4.07
2022-12-09T02:57:42.419Z,4.33
2022-12-09T03:00:16.966Z,4.07
2022-12-09T03:02:52.366Z,5.15
2022-12-09T03:05:34.199Z,5.82
2022-12-09T03:08:16.564Z,4.57
2022-12-09T03:10:56.147Z,3.57
2022-12-09T03:13:45.092Z,4.90
2022-12-09T03:16:26.956Z,6.07
2022-12-09T03:19:04.542Z,4.35
2022-12-09T03:21:40.047Z,4.53
2022-12-09T03:24:12.773Z,3.10
2022-12-09T03:26:44.488Z,3.50
2022-12-09T03:29:24.527Z,4.10
2022-12-09T03:31:58.619Z,7.03
2022-12-09T03:34:35.752Z,3.17
2022-12-09T03:37:08.264Z,5.17
2022-12-09T03:39:40.768Z,4.50
2022-12-09T03:42:18.650Z,3.38
2022-12-09T03:44:53.749Z,3.47
2022-12-09T03:47:23.026Z,2.80
2022-12-09T03:49:52.485Z,3.73
2022-12-09T03:52:32.109Z,3.55
2022-12-09T03:55:07.728Z,3.00
2022-12-09T03:57:41.476Z,3.90
2022-12-09T04:00:12.164Z,4.20
2022-12-09T04:02:41.881Z,5.87
2022-12-09T04:05:11.810Z,3.97
2022-12-09T04:07:42.704Z,4.47
2022-12-09T04:10:12.738Z,3.35
2022-12-09T04:12:42.314Z,5.65
2022-12-09T04:15:11.744Z,5.80
2022-12-09T04:17:40.774Z,4.78
2022-12-09T04:20:11.711Z,3.85
2022-12-09T04:22:42.162Z,3.80
2022-12-09T04:25:11.742Z,5.65
2022-12-09T04:27:40.996Z,3.43
2022-12-09T04:30:11.912Z,4.88
2022-12-09T04:32:41.230Z,4.70
2022-12-09T04:35:11.300Z,5.15
2022-12-09T04:37:41.961Z,5.65
2022-12-09T04:40:16.678Z,4.77
2022-12-09T04:42:48.939Z,4.13
2022-12-09T04:45:18.882Z,4.35
2022-12-09T04:47:48.008Z,5.57
2022-12-09T04:50:17.288Z,4.20
2022-12-09T04:52:47.670Z,3.30
2022-12-09T04:55:16.985Z,6.45
2022-12-09T04:57:53.657Z,3.13
2022-12-09T05:00:24.288Z,3.97
2022-12-09T05:03:03.190Z,3.85
2022-12-09T05:05:33.537Z,3.73
2022-12-09T05:08:07.312Z,6.95
2022-12-09T05:10:36.951Z,4.57
2022-12-09T05:13:09.841Z,4.15
2022-12-09T05:15:40.887Z,3.15
2022-12-09T05:18:13.426Z,4.93
2022-12-09T05:20:45.082Z,5.00
2022-12-09T05:24:01.873Z,4.22
2022-12-09T05:26:36.196Z,8.35
2022-12-09T05:29:22.729Z,6.25
2022-12-09T05:32:02.182Z,3.10
2022-12-09T05:34:34.608Z,4.07
2022-12-09T05:37:06.591Z,4.50
2022-12-09T05:39:57.110Z,4.00
2022-12-09T05:42:41.415Z,4.28
2022-12-09T05:45:12.541Z,4.33
2022-12-09T05:47:53.738Z,3.85
2022-12-09T05:50:24.876Z,4.03
2022-12-09T05:53:43.395Z,4.40
2022-12-09T05:56:33.740Z,5.07
2022-12-09T05:59:17.666Z,4.77
2022-12-09T06:01:52.336Z,4.72
2022-12-09T06:04:26.955Z,4.53
2022-12-09T06:07:04.491Z,4.80
2022-12-09T06:09:36.282Z,5.63
2022-12-09T06:12:12.441Z,4.50
2022-12-09T06:14:50.537Z,3.58
2022-12-09T06:17:22.946Z,4.38
2022-12-09T06:19:59.234Z,5.47
2022-12-09T06:22:35.838Z,6.70
2022-12-09T06:25:11.864Z,7.73
2022-12-09T06:27:50.405Z,5.65
2022-12-09T06:30:25.373Z,4.65
2022-12-09T06:33:36.920Z,6.30
2022-12-09T06:36:05.416Z,6.57
2022-12-09T06:39:10.132Z,6.37
2022-12-09T06:41:47.944Z,7.30
2022-12-09T06:44:23.736Z,5.18
2022-12-09T06:46:55.470Z,7.05
2022-12-09T06:49:27.207Z,5.85
2022-12-09T06:52:09.778Z,6.87
2022-12-09T06:54:43.128Z,4.90
2022-12-09T06:57:34.011Z,7.18
2022-12-09T07:00:27.737Z,6.50
2022-12-09T07:02:57.987Z,6.05
2022-12-09T07:05:29.782Z,8.27
2022-12-09T07:11:01.169Z,8.02
2022-12-09T07:13:35.635Z,6.40
2022-12-09T07:16:12.708Z,7.45
2022-12-09T07:18:52.024Z,6.13
2022-12-09T07:21:24.727Z,7.72
2022-12-09T07:24:17.248Z,9.70
2022-12-09T07:26:53.858Z,6.97
2022-12-09T07:29:46.381Z,11.00
2022-12-09T07:32:28.920Z,4.97
2022-12-09T07:34:58.608Z,6.85
2022-12-09T07:37:51.012Z,7.35
2022-12-09T07:40:20.954Z,6.13
2022-12-09T07:42:56.239Z,7.82
2022-12-09T07:45:35.785Z,8.97
2022-12-09T07:48:14.423Z,8.88
2022-12-09T07:50:47.933Z,8.95
2022-12-09T07:53:18.277Z,10.32
2022-12-09T07:55:53.250Z,9.80
2022-12-09T07:58:23.939Z,7.23
2022-12-09T08:00:58.591Z,9.00
2022-12-09T08:03:31.237Z,5.57
2022-12-09T08:06:00.889Z,9.52
2022-12-09T08:08:31.479Z,8.57
2022-12-09T08:11:09.447Z,9.20
2022-12-09T08:13:39.793Z,11.00
2022-12-09T08:16:11.773Z,13.38
2022-12-09T08:18:45.599Z,11.52
2022-12-09T08:21:19.689Z,9.48
2022-12-09T08:23:52.927Z,11.20
2022-12-09T08:26:25.554Z,14.98
2022-12-09T08:28:55.075Z,13.82
2022-12-09T08:31:27.460Z,11.35
2022-12-09T08:34:04.619Z,13.93
2022-12-09T08:36:35.134Z,14.60
2022-12-09T08:39:07.010Z,12.40
2022-12-09T08:41:39.400Z,15.57
2022-12-09T08:44:13.086Z,14.23
2022-12-09T08:46:44.616Z,16.13
2022-12-09T08:49:19.301Z,15.63
2022-12-09T08:51:50.896Z,14.68
2022-12-09T08:54:21.563Z,9.75
2022-12-09T08:56:58.438Z,16.20
2022-12-09T08:59:28.844Z,17.58
2022-12-09T09:01:57.941Z,17.67
2022-12-09T09:04:34.893Z,16.98
2022-12-09T09:07:10.865Z,17.85
2022-12-09T09:09:40.431Z,15.40
2022-12-09T09:12:13.439Z,14.52
2022-12-09T09:14:45.831Z,12.03
2022-12-09T09:17:16.846Z,14.05
2022-12-09T09:19:48.995Z,16.35
2022-12-09T09:22:19.023Z,16.42
2022-12-09T09:24:49.659Z,16.00
2022-12-09T09:27:19.663Z,16.03
2022-12-09T09:29:52.994Z,16.17
2022-12-09T09:32:29.531Z,13.60
2022-12-09T09:35:00.725Z,12.48
2022-12-09T09:37:34.980Z,13.30
2022-12-09T09:40:06.335Z,14.27
2022-12-09T09:42:45.293Z,12.73
2022-12-09T09:45:25.032Z,12.70
2022-12-09T09:48:02.709Z,9.68
2022-12-09T09:50:41.788Z,12.82
2022-12-09T09:53:20.869Z,12.60
2022-12-09T09:56:00.025Z,12.60
2022-12-09T09:58:42.994Z,11.40
2022-12-09T10:01:17.925Z,13.20
2022-12-09T10:04:01.673Z,12.77
2022-12-09T10:06:46.908Z,13.67
2022-12-09T10:09:24.616Z,11.68
2022-12-09T10:12:06.395Z,13.27
2022-12-09T10:14:59.847Z,12.50
2022-12-09T10:17:37.474Z,11.40
2022-12-09T10:20:17.183Z,13.30
2022-12-09T10:22:54.946Z,9.65
2022-12-09T10:25:35.876Z,12.35
2022-12-09T10:28:20.142Z,15.20
2022-12-09T10:30:51.017Z,11.35
2022-12-09T10:33:27.489Z,11.20
2022-12-09T10:35:57.919Z,12.18
2022-12-09T10:38:33.638Z,12.05
2022-12-09T10:41:15.916Z,13.85
2022-12-09T10:43:44.729Z,11.32
2022-12-09T10:46:27.539Z,16.30
2022-12-09T10:49:02.721Z,13.57
2022-12-09T10:51:39.707Z,11.75
2022-12-09T10:54:25.763Z,12.98
2022-12-09T10:57:25.973Z,15.18
2022-12-09T11:00:32.698Z,11.97
2022-12-09T11:03:10.107Z,14.10
2022-12-09T11:06:07.372Z,12.43
2022-12-09T11:08:42.647Z,13.63
2022-12-09T11:11:20.850Z,24.13
2022-12-09T11:14:02.833Z,26.57
2022-12-09T11:16:54.578Z,27.92
2022-12-09T11:19:34.371Z,21.70
2022-12-09T11:22:39.529Z,17.20
2022-12-09T11:25:31.828Z,15.63
2022-12-09T11:31:33.283Z,13.32
2022-12-09T11:34:19.872Z,12.48
2022-12-09T11:36:58.044Z,14.35
2022-12-09T11:39:57.442Z,10.25
2022-12-09T11:42:34.621Z,12.33
2022-12-09T11:45:19.606Z,12.20
2022-12-09T11:48:24.169Z,9.90
2022-12-09T11:50:46.421Z,14.80
2022-12-09T11:53:38.882Z,11.52
2022-12-09T11:56:28.192Z,11.90
2022-12-09T11:59:22.643Z,12.05
2022-12-09T12:02:36.501Z,16.52
2022-12-09T12:05:24.716Z,11.18
2022-12-09T12:08:47.990Z,13.95
2022-12-09T12:11:53.829Z,10.73
2022-12-09T12:14:31.225Z,14.43
2022-12-09T12:17:18.245Z,14.98
2022-12-09T12:19:57.642Z,14.02
2022-12-09T12:23:01.754Z,14.13
2022-12-09T12:25:47.568Z,17.47
2022-12-09T12:29:07.511Z,15.95
2022-12-09T12:32:04.829Z,16.33
2022-12-09T12:34:54.440Z,16.05
2022-12-09T12:37:45.938Z,12.30
2022-12-09T12:40:37.404Z,12.90
2022-12-09T12:44:02.930Z,15.23
2022-12-09T12:46:54.337Z,14.73
2022-12-09T12:49:44.094Z,17.30
2022-12-09T12:55:49.815Z,16.33
2022-12-09T12:58:37.080Z,12.48
2022-12-09T13:01:17.396Z,19.77
2022-12-09T13:03:59.210Z,17.15
2022-12-09T13:06:43.472Z,15.85
2022-12-09T13:09:23.767Z,14.07
2022-12-09T13:12:05.557Z,15.32
2022-12-09T13:14:52.417Z,7.43
2022-12-09T13:17:32.628Z,13.02
2022-12-09T13:20:08.046Z,11.90
2022-12-09T13:22:56.188Z,13.23
2022-12-09T13:25:39.995Z,9.85
2022-12-09T13:28:19.905Z,15.00
2022-12-09T13:31:00.538Z,10.73
2022-12-09T13:33:53.108Z,13.40
2022-12-09T13:36:36.752Z,14.33
2022-12-09T13:39:06.788Z,13.40
2022-12-09T13:42:07.991Z,15.00
2022-12-09T13:44:40.447Z,11.98
2022-12-09T13:47:26.988Z,15.43
2022-12-09T13:50:07.393Z,18.23
2022-12-09T13:52:50.984Z,13.77
2022-12-09T13:55:31.688Z,15.02
2022-12-09T13:58:27.770Z,15.18
2022-12-09T14:01:20.176Z,16.58
2022-12-09T14:04:02.840Z,14.63
2022-12-09T14:06:38.763Z,16.45
2022-12-09T14:09:27.830Z,13.98
2022-12-09T14:11:57.989Z,14.57
2022-12-09T14:14:51.646Z,17.38
2022-12-09T14:18:00.240Z,17.27
2022-12-09T14:20:40.659Z,15.57
2022-12-09T14:23:19.716Z,17.30
2022-12-09T14:26:05.960Z,15.60
2022-12-09T14:28:56.945Z,18.55
2022-12-09T14:32:03.089Z,12.10
2022-12-09T14:34:42.789Z,16.10
2022-12-09T14:37:36.513Z,17.65
2022-12-09T14:40:28.004Z,17.38
2022-12-09T14:43:14.917Z,17.23
2022-12-09T14:45:52.268Z,14.80
2022-12-09T14:48:26.549Z,14.57
2022-12-09T14:51:20.068Z,14.95
2022-12-09T14:53:53.319Z,18.15
2022-12-09T14:56:25.260Z,16.42
2022-12-09T14:59:01.050Z,16.03
2022-12-09T15:01:29.919Z,13.02
2022-12-09T15:04:01.243Z,13.55
2022-12-09T15:06:30.156Z,19.20
2022-12-09T15:09:00.194Z,17.02
2022-12-09T15:11:32.562Z,13.90
2022-12-09T15:14:28.455Z,15.65
2022-12-09T15:16:58.908Z,15.45
2022-12-09T15:22:25.226Z,13.68
2022-12-09T15:24:54.946Z,14.90
2022-12-09T15:27:26.861Z,18.27
2022-12-09T15:30:02.046Z,15.15
2022-12-09T15:32:31.891Z,14.90
2022-12-09T15:35:23.694Z,14.43
2022-12-09T15:37:55.982Z,16.10
2022-12-09T15:40:29.243Z,18.67
2022-12-09T15:43:02.546Z,11.35
2022-12-09T15:45:36.625Z,24.90
2022-12-09T15:48:13.662Z,13.13
2022-12-09T15:50:50.702Z,17.87
2022-12-09T15:53:28.816Z,16.00
2022-12-09T15:56:03.766Z,15.25
2022-12-09T16:02:01.754Z,13.68
2022-12-09T16:04:36.429Z,11.57
2022-12-09T16:07:13.041Z,12.30
2022-12-09T16:09:42.571Z,14.63
2022-12-09T16:12:27.759Z,10.65
2022-12-09T16:15:03.270Z,15.27
2022-12-09T16:17:39.023Z,11.40
2022-12-09T16:20:33.512Z,12.40
2022-12-09T16:23:06.328Z,13.70
2022-12-09T16:25:43.180Z,15.35
2022-12-09T16:28:23.341Z,16.98
2022-12-09T16:30:59.193Z,14.67
2022-12-09T16:33:29.492Z,13.63
2022-12-09T16:36:02.345Z,13.65
2022-12-09T16:38:35.163Z,18.17
2022-12-09T16:41:10.863Z,16.58
2022-12-09T16:43:56.588Z,18.47
2022-12-09T16:46:43.006Z,16.42
2022-12-09T16:49:12.303Z,17.45
2022-12-09T16:51:41.613Z,14.40
2022-12-09T16:54:20.587Z,14.07
2022-12-09T16:56:51.437Z,14.93
2022-12-09T16:59:20.214Z,15.00
2022-12-09T17:01:49.035Z,15.20
2022-12-09T17:04:23.213Z,15.02
2022-12-09T17:06:52.236Z,17.85
2022-12-09T17:09:22.665Z,14.97
2022-12-09T17:11:51.602Z,15.63
2022-12-09T17:14:20.587Z,13.55
2022-12-09T17:16:49.420Z,18.85
2022-12-09T17:19:23.557Z,13.70
2022-12-09T17:21:52.621Z,17.23
2022-12-09T17:24:22.714Z,15.50
2022-12-09T17:26:51.776Z,16.30
2022-12-09T17:29:21.407Z,15.98
2022-12-09T17:31:51.953Z,16.73
2022-12-09T17:34:21.689Z,15.47
2022-12-09T17:36:50.368Z,16.35
2022-12-09T17:39:20.424Z,16.00
2022-12-09T17:41:51.081Z,20.30
2022-12-09T17:44:21.339Z,15.02
2022-12-09T17:46:51.247Z,16.83
2022-12-09T17:49:21.151Z,17.65
2022-12-09T17:51:50.006Z,16.30
2022-12-09T17:54:21.533Z,15.35
2022-12-09T17:56:55.411Z,14.75
2022-12-09T17:59:24.575Z,15.97
2022-12-09T18:01:54.600Z,16.95
2022-12-09T18:04:23.680Z,18.05
2022-12-09T18:06:52.623Z,18.02
2022-12-09T18:09:22.789Z,22.17
2022-12-09T18:11:54.535Z,20.40
2022-12-09T18:14:25.658Z,14.63
2022-12-09T18:16:54.693Z,12.02
2022-12-09T18:19:25.129Z,17.70
2022-12-09T18:21:59.077Z,16.80
2022-12-09T18:24:29.602Z,15.70
2022-12-09T18:27:00.332Z,13.50
2022-12-09T18:29:29.447Z,16.02
2022-12-09T18:32:04.656Z,14.43
2022-12-09T18:34:37.570Z,14.75
2022-12-09T18:37:06.934Z,16.97
2022-12-09T18:39:36.298Z,15.55
2022-12-09T18:42:07.464Z,16.25
2022-12-09T18:44:36.368Z,14.73
2022-12-09T18:47:05.760Z,14.48
2022-12-09T18:49:36.328Z,16.37
2022-12-09T18:52:06.837Z,16.15
2022-12-09T18:54:36.658Z,15.23
2022-12-09T18:57:06.858Z,14.63
2022-12-09T18:59:35.647Z,16.00
2022-12-09T19:02:04.682Z,15.23
2022-12-09T19:04:34.452Z,16.35
2022-12-09T19:07:03.701Z,15.40
2022-12-09T19:09:36.407Z,18.83
2022-12-09T19:12:45.243Z,18.52
2022-12-09T19:15:03.751Z,16.67
2022-12-09T19:17:32.768Z,17.75
2022-12-09T19:20:01.534Z,17.70
2022-12-09T19:22:30.423Z,15.63
2022-12-09T19:24:59.131Z,16.40
2022-12-09T19:27:30.188Z,13.27
2022-12-09T19:30:01.862Z,17.33
2022-12-09T19:32:52.428Z,17.10
2022-12-09T19:35:20.750Z,20.90
2022-12-09T19:37:49.929Z,16.67
2022-12-09T19:40:19.291Z,16.67
2022-12-09T19:42:50.743Z,16.17
2022-12-09T19:45:19.516Z,15.80
2022-12-09T19:47:48.459Z,17.25
2022-12-09T19:50:17.538Z,13.05
2022-12-09T19:52:46.759Z,15.13
2022-12-09T19:55:17.717Z,14.85
2022-12-09T19:57:48.617Z,12.48
2022-12-09T20:00:41.650Z,16.02
2022-12-09T20:03:12.880Z,14.27
2022-12-09T20:05:50.561Z,12.03
2022-12-09T20:08:20.330Z,12.05
2022-12-09T20:10:54.363Z,14.40
2022-12-09T20:13:27.223Z,12.45
2022-12-09T20:16:06.034Z,11.75
2022-12-09T20:18:48.779Z,8.87
2022-12-09T20:21:24.489Z,12.98
2022-12-09T20:23:55.412Z,10.40
2022-12-09T20:26:27.488Z,11.32
2022-12-09T20:29:04.246Z,11.25
2022-12-09T20:31:44.440Z,12.43
2022-12-09T20:34:18.158Z,12.23
2022-12-09T20:36:52.893Z,14.73
2022-12-09T20:39:23.040Z,10.35
2022-12-09T20:41:53.638Z,12.05
2022-12-09T20:44:22.581Z,12.77
2022-12-09T20:46:54.527Z,10.27
2022-12-09T20:49:26.871Z,11.07
2022-12-09T20:51:57.530Z,10.85
2022-12-09T20:54:26.405Z,12.88
2022-12-09T20:56:59.672Z,11.37
2022-12-09T20:59:28.982Z,12.38
2022-12-09T21:02:08.342Z,12.85
2022-12-09T21:04:42.446Z,9.05
2022-12-09T21:07:12.192Z,8.25
2022-12-09T21:09:41.091Z,11.20
2022-12-09T21:12:09.981Z,12.20
2022-12-09T21:14:40.830Z,9.68
2022-12-09T21:17:25.554Z,9.52
2022-12-09T21:19:58.644Z,10.35
2022-12-09T21:22:31.518Z,7.83
2022-12-09T21:25:00.233Z,14.90
2022-12-09T21:27:29.120Z,12.15
2022-12-09T21:29:59.302Z,13.52
2022-12-09T21:32:30.033Z,12.52
2022-12-09T21:35:06.997Z,9.27
2022-12-09T21:37:38.686Z,12.98
2022-12-09T21:40:08.650Z,11.25
2022-12-09T21:42:45.670Z,10.82
2022-12-09T21:45:15.064Z,10.07
2022-12-09T21:47:45.973Z,10.10
2022-12-09T21:50:14.772Z,16.23
2022-12-09T21:52:48.976Z,11.88
2022-12-09T21:55:27.524Z,14.80
2022-12-09T21:58:04.707Z,13.70
2022-12-09T22:00:33.849Z,17.50
2022-12-09T22:03:05.326Z,15.95
2022-12-09T22:05:34.499Z,14.77
2022-12-09T22:08:04.422Z,14.52
2022-12-09T22:10:38.365Z,16.30
2022-12-09T22:13:07.206Z,15.33
2022-12-09T22:15:37.898Z,16.25
2022-12-09T22:18:09.081Z,12.77
2022-12-09T22:21:22.909Z,16.30
2022-12-09T22:23:34.775Z,16.98
2022-12-09T22:26:13.684Z,18.43
2022-12-09T22:28:42.501Z,17.33
2022-12-09T22:31:20.612Z,14.25
2022-12-09T22:34:02.744Z,17.20
2022-12-09T22:36:37.949Z,19.42
2022-12-09T22:39:23.492Z,20.57
2022-12-09T22:41:56.461Z,24.67
2022-12-09T22:44:28.587Z,13.35
2022-12-09T22:47:16.011Z,22.90
2022-12-09T22:49:48.635Z,23.45
2022-12-09T22:52:25.698Z,17.40
2022-12-09T22:54:57.409Z,19.25
2022-12-09T22:57:34.750Z,20.67
2022-12-09T23:00:20.977Z,21.00
2022-12-09T23:02:54.789Z,28.02
2022-12-09T23:05:33.187Z,19.57
2022-12-09T23:08:14.948Z,24.17
2022-12-09T23:10:52.745Z,34.35
2022-12-09T23:13:28.474Z,19.48
2022-12-09T23:16:02.828Z,19.48
2022-12-09T23:18:36.475Z,22.53
2022-12-09T23:21:13.528Z,25.92
2022-12-09T23:23:44.165Z,15.40
2022-12-09T23:26:18.110Z,14.85
2022-12-09T23:28:55.208Z,30.00
2022-12-09T23:31:39.849Z,22.37
2022-12-09T23:34:16.668Z,14.27
2022-12-09T23:36:50.860Z,18.40
2022-12-09T23:39:21.870Z,20.58
2022-12-09T23:42:03.073Z,21.95
2022-12-09T23:44:33.004Z,23.03
2022-12-09T23:47:06.354Z,20.83
2022-12-09T23:49:50.282Z,21.75
2022-12-09T23:52:25.224Z,29.55
2022-12-09T23:55:04.640Z,19.80
2022-12-09T23:57:34.276Z,22.20
